sensor_id;sensor_type;location;lat;lon;timestamp;P1;durP1;ratioP1;P2;durP2;ratioP2
4323;SDS011;2175;51.018;6.994;2023-12-20T00:00:55;17.40;;;13.47;;
4323;SDS011;2175;51.018;6.994;2023-12-20T00:03:21;19.80;;;14.53;;
4323;SDS011;2175;51.018;6.994;2023-12-20T00:05:48;16.57;;;13.90;;
4323;SDS011;2175;51.018;6.994;2023-12-20T00:08:14;17.50;;;14.13;;
4323;SDS011;2175;51.018;6.994;2023-12-20T00:10:40;18.30;;;14.47;;
4323;SDS011;2175;51.018;6.994;2023-12-20T00:13:06;15.87;;;13.50;;
4323;SDS011;2175;51.018;6.994;2023-12-20T00:15:33;14.27;;;12.50;;
4323;SDS011;2175;51.018;6.994;2023-12-20T00:17:59;18.43;;;14.93;;
4323;SDS011;2175;51.018;6.994;2023-12-20T00:20:26;22.70;;;13.43;;
4323;SDS011;2175;51.018;6.994;2023-12-20T00:22:52;15.20;;;12.40;;
4323;SDS011;2175;51.018;6.994;2023-12-20T00:25:18;17.77;;;13.43;;
4323;SDS011;2175;51.018;6.994;2023-12-20T00:27:44;14.60;;;12.20;;
4323;SDS011;2175;51.018;6.994;2023-12-20T00:30:10;17.13;;;13.33;;
4323;SDS011;2175;51.018;6.994;2023-12-20T00:32:36;22.07;;;16.23;;
4323;SDS011;2175;51.018;6.994;2023-12-20T00:35:02;17.90;;;13.50;;
4323;SDS011;2175;51.018;6.994;2023-12-20T00:37:28;26.80;;;20.93;;
4323;SDS011;2175;51.018;6.994;2023-12-20T00:39:54;29.17;;;21.90;;
4323;SDS011;2175;51.018;6.994;2023-12-20T00:42:20;30.20;;;21.33;;
4323;SDS011;2175;51.018;6.994;2023-12-20T00:44:46;22.90;;;14.60;;
4323;SDS011;2175;51.018;6.994;2023-12-20T00:47:12;23.40;;;15.60;;
4323;SDS011;2175;51.018;6.994;2023-12-20T00:49:38;24.77;;;16.90;;
4323;SDS011;2175;51.018;6.994;2023-12-20T00:52:04;20.03;;;13.73;;
4323;SDS011;2175;51.018;6.994;2023-12-20T00:54:30;16.97;;;10.57;;
4323;SDS011;2175;51.018;6.994;2023-12-20T00:56:56;25.57;;;16.40;;
4323;SDS011;2175;51.018;6.994;2023-12-20T00:59:22;23.73;;;13.10;;
4323;SDS011;2175;51.018;6.994;2023-12-20T01:01:48;21.37;;;16.60;;
4323;SDS011;2175;51.018;6.994;2023-12-20T01:04:14;20.97;;;12.87;;
4323;SDS011;2175;51.018;6.994;2023-12-20T01:06:40;16.37;;;10.43;;
4323;SDS011;2175;51.018;6.994;2023-12-20T01:09:06;21.40;;;12.10;;
4323;SDS011;2175;51.018;6.994;2023-12-20T01:11:32;22.40;;;12.70;;
4323;SDS011;2175;51.018;6.994;2023-12-20T01:13:58;21.50;;;12.30;;
4323;SDS011;2175;51.018;6.994;2023-12-20T01:16:24;18.87;;;8.63;;
4323;SDS011;2175;51.018;6.994;2023-12-20T01:18:50;18.37;;;9.77;;
4323;SDS011;2175;51.018;6.994;2023-12-20T01:21:16;17.37;;;10.10;;
4323;SDS011;2175;51.018;6.994;2023-12-20T01:23:42;19.67;;;11.87;;
4323;SDS011;2175;51.018;6.994;2023-12-20T01:26:08;18.80;;;11.93;;
4323;SDS011;2175;51.018;6.994;2023-12-20T01:28:34;20.70;;;11.63;;
4323;SDS011;2175;51.018;6.994;2023-12-20T01:31:00;15.73;;;8.70;;
4323;SDS011;2175;51.018;6.994;2023-12-20T01:33:26;20.50;;;9.43;;
4323;SDS011;2175;51.018;6.994;2023-12-20T01:35:52;18.70;;;11.77;;
4323;SDS011;2175;51.018;6.994;2023-12-20T01:38:18;18.63;;;12.73;;
4323;SDS011;2175;51.018;6.994;2023-12-20T01:40:45;18.73;;;12.10;;
4323;SDS011;2175;51.018;6.994;2023-12-20T01:43:11;23.13;;;13.93;;
4323;SDS011;2175;51.018;6.994;2023-12-20T01:45:37;25.57;;;15.03;;
4323;SDS011;2175;51.018;6.994;2023-12-20T01:48:03;21.50;;;12.57;;
4323;SDS011;2175;51.018;6.994;2023-12-20T01:50:30;23.30;;;14.07;;
4323;SDS011;2175;51.018;6.994;2023-12-20T01:52:57;27.23;;;14.50;;
4323;SDS011;2175;51.018;6.994;2023-12-20T01:55:24;27.70;;;14.43;;
4323;SDS011;2175;51.018;6.994;2023-12-20T01:57:50;24.17;;;14.00;;
4323;SDS011;2175;51.018;6.994;2023-12-20T02:00:17;22.60;;;12.17;;
4323;SDS011;2175;51.018;6.994;2023-12-20T02:02:45;24.83;;;13.37;;
4323;SDS011;2175;51.018;6.994;2023-12-20T02:05:11;25.87;;;13.20;;
4323;SDS011;2175;51.018;6.994;2023-12-20T02:07:38;25.90;;;13.70;;
4323;SDS011;2175;51.018;6.994;2023-12-20T02:10:04;22.43;;;13.90;;
4323;SDS011;2175;51.018;6.994;2023-12-20T02:12:30;26.70;;;11.90;;
4323;SDS011;2175;51.018;6.994;2023-12-20T02:14:56;18.50;;;10.67;;
4323;SDS011;2175;51.018;6.994;2023-12-20T02:17:22;19.23;;;10.60;;
4323;SDS011;2175;51.018;6.994;2023-12-20T02:19:49;21.60;;;11.40;;
4323;SDS011;2175;51.018;6.994;2023-12-20T02:22:15;21.47;;;12.60;;
4323;SDS011;2175;51.018;6.994;2023-12-20T02:24:41;27.77;;;13.43;;
4323;SDS011;2175;51.018;6.994;2023-12-20T02:27:07;31.73;;;13.23;;
4323;SDS011;2175;51.018;6.994;2023-12-20T02:29:34;25.40;;;11.07;;
4323;SDS011;2175;51.018;6.994;2023-12-20T02:32:00;20.27;;;11.37;;
4323;SDS011;2175;51.018;6.994;2023-12-20T02:34:26;24.90;;;10.57;;
4323;SDS011;2175;51.018;6.994;2023-12-20T02:36:52;25.73;;;12.20;;
4323;SDS011;2175;51.018;6.994;2023-12-20T02:39:18;26.83;;;11.40;;
4323;SDS011;2175;51.018;6.994;2023-12-20T02:41:44;20.10;;;9.10;;
4323;SDS011;2175;51.018;6.994;2023-12-20T02:44:10;18.47;;;9.40;;
4323;SDS011;2175;51.018;6.994;2023-12-20T02:46:36;19.10;;;10.40;;
4323;SDS011;2175;51.018;6.994;2023-12-20T02:49:02;22.30;;;9.97;;
4323;SDS011;2175;51.018;6.994;2023-12-20T02:51:28;29.40;;;8.70;;
4323;SDS011;2175;51.018;6.994;2023-12-20T02:53:54;25.37;;;9.73;;
4323;SDS011;2175;51.018;6.994;2023-12-20T02:56:20;15.73;;;8.07;;
4323;SDS011;2175;51.018;6.994;2023-12-20T02:58:46;25.70;;;8.07;;
4323;SDS011;2175;51.018;6.994;2023-12-20T03:01:12;18.47;;;7.73;;
4323;SDS011;2175;51.018;6.994;2023-12-20T03:03:38;27.27;;;8.60;;
4323;SDS011;2175;51.018;6.994;2023-12-20T03:06:04;18.97;;;6.87;;
4323;SDS011;2175;51.018;6.994;2023-12-20T03:08:30;17.63;;;5.90;;
4323;SDS011;2175;51.018;6.994;2023-12-20T03:10:56;21.70;;;6.00;;
4323;SDS011;2175;51.018;6.994;2023-12-20T03:13:22;18.50;;;5.50;;
4323;SDS011;2175;51.018;6.994;2023-12-20T03:15:48;17.57;;;5.63;;
4323;SDS011;2175;51.018;6.994;2023-12-20T03:18:14;26.50;;;6.27;;
4323;SDS011;2175;51.018;6.994;2023-12-20T03:20:39;21.83;;;4.83;;
4323;SDS011;2175;51.018;6.994;2023-12-20T03:23:06;15.50;;;5.20;;
4323;SDS011;2175;51.018;6.994;2023-12-20T03:25:32;15.33;;;4.40;;
4323;SDS011;2175;51.018;6.994;2023-12-20T03:27:58;15.50;;;4.47;;
4323;SDS011;2175;51.018;6.994;2023-12-20T03:30:24;12.80;;;4.33;;
4323;SDS011;2175;51.018;6.994;2023-12-20T03:32:50;19.73;;;4.33;;
4323;SDS011;2175;51.018;6.994;2023-12-20T03:35:16;22.17;;;4.43;;
4323;SDS011;2175;51.018;6.994;2023-12-20T03:37:42;20.93;;;5.20;;
4323;SDS011;2175;51.018;6.994;2023-12-20T03:40:08;22.83;;;4.70;;
4323;SDS011;2175;51.018;6.994;2023-12-20T03:42:35;16.70;;;4.67;;
4323;SDS011;2175;51.018;6.994;2023-12-20T03:45:01;21.07;;;6.83;;
4323;SDS011;2175;51.018;6.994;2023-12-20T03:47:26;19.17;;;4.60;;
4323;SDS011;2175;51.018;6.994;2023-12-20T03:49:53;28.30;;;4.83;;
4323;SDS011;2175;51.018;6.994;2023-12-20T03:52:18;15.47;;;4.30;;
4323;SDS011;2175;51.018;6.994;2023-12-20T03:54:44;16.77;;;5.00;;
4323;SDS011;2175;51.018;6.994;2023-12-20T03:57:10;13.97;;;4.37;;
4323;SDS011;2175;51.018;6.994;2023-12-20T03:59:37;25.80;;;5.47;;
4323;SDS011;2175;51.018;6.994;2023-12-20T04:02:03;15.53;;;4.90;;
4323;SDS011;2175;51.018;6.994;2023-12-20T04:04:29;26.20;;;5.80;;
4323;SDS011;2175;51.018;6.994;2023-12-20T04:06:55;17.40;;;4.60;;
4323;SDS011;2175;51.018;6.994;2023-12-20T04:09:21;29.23;;;6.27;;
4323;SDS011;2175;51.018;6.994;2023-12-20T04:11:47;17.37;;;5.70;;
4323;SDS011;2175;51.018;6.994;2023-12-20T04:14:13;23.70;;;5.40;;
4323;SDS011;2175;51.018;6.994;2023-12-20T04:16:39;24.00;;;5.53;;
4323;SDS011;2175;51.018;6.994;2023-12-20T04:19:05;15.27;;;5.33;;
4323;SDS011;2175;51.018;6.994;2023-12-20T04:21:31;30.97;;;6.93;;
4323;SDS011;2175;51.018;6.994;2023-12-20T04:23:57;23.80;;;6.10;;
4323;SDS011;2175;51.018;6.994;2023-12-20T04:26:23;22.47;;;5.73;;
4323;SDS011;2175;51.018;6.994;2023-12-20T04:28:49;18.63;;;5.60;;
4323;SDS011;2175;51.018;6.994;2023-12-20T04:31:15;22.87;;;6.10;;
4323;SDS011;2175;51.018;6.994;2023-12-20T04:33:41;23.63;;;5.40;;
4323;SDS011;2175;51.018;6.994;2023-12-20T04:36:07;26.30;;;6.27;;
4323;SDS011;2175;51.018;6.994;2023-12-20T04:38:34;23.53;;;6.60;;
4323;SDS011;2175;51.018;6.994;2023-12-20T04:41:00;25.53;;;6.23;;
4323;SDS011;2175;51.018;6.994;2023-12-20T04:43:26;21.93;;;6.33;;
4323;SDS011;2175;51.018;6.994;2023-12-20T04:45:53;24.80;;;7.40;;
4323;SDS011;2175;51.018;6.994;2023-12-20T04:48:19;32.63;;;9.00;;
4323;SDS011;2175;51.018;6.994;2023-12-20T04:50:45;23.57;;;8.80;;
4323;SDS011;2175;51.018;6.994;2023-12-20T04:53:11;21.30;;;7.33;;
4323;SDS011;2175;51.018;6.994;2023-12-20T04:55:37;22.00;;;7.40;;
4323;SDS011;2175;51.018;6.994;2023-12-20T04:58:04;19.13;;;7.40;;
4323;SDS011;2175;51.018;6.994;2023-12-20T05:00:30;32.17;;;7.70;;
4323;SDS011;2175;51.018;6.994;2023-12-20T05:02:56;32.57;;;7.30;;
4323;SDS011;2175;51.018;6.994;2023-12-20T05:05:22;16.50;;;6.40;;
4323;SDS011;2175;51.018;6.994;2023-12-20T05:07:48;28.63;;;7.23;;
4323;SDS011;2175;51.018;6.994;2023-12-20T05:10:14;25.33;;;7.30;;
4323;SDS011;2175;51.018;6.994;2023-12-20T05:12:40;18.37;;;7.30;;
4323;SDS011;2175;51.018;6.994;2023-12-20T05:15:06;24.50;;;8.20;;
4323;SDS011;2175;51.018;6.994;2023-12-20T05:17:32;21.87;;;6.10;;
4323;SDS011;2175;51.018;6.994;2023-12-20T05:19:58;19.93;;;5.80;;
4323;SDS011;2175;51.018;6.994;2023-12-20T05:22:24;21.70;;;7.70;;
4323;SDS011;2175;51.018;6.994;2023-12-20T05:24:52;25.73;;;6.67;;
4323;SDS011;2175;51.018;6.994;2023-12-20T05:27:18;21.17;;;7.37;;
4323;SDS011;2175;51.018;6.994;2023-12-20T05:29:44;27.53;;;8.07;;
4323;SDS011;2175;51.018;6.994;2023-12-20T05:32:10;21.60;;;7.00;;
4323;SDS011;2175;51.018;6.994;2023-12-20T05:34:36;31.60;;;7.50;;
4323;SDS011;2175;51.018;6.994;2023-12-20T05:37:02;19.10;;;7.90;;
4323;SDS011;2175;51.018;6.994;2023-12-20T05:39:28;19.50;;;6.10;;
4323;SDS011;2175;51.018;6.994;2023-12-20T05:41:56;22.83;;;6.97;;
4323;SDS011;2175;51.018;6.994;2023-12-20T05:44:22;32.13;;;7.90;;
4323;SDS011;2175;51.018;6.994;2023-12-20T05:46:48;25.37;;;7.00;;
4323;SDS011;2175;51.018;6.994;2023-12-20T05:49:14;22.33;;;6.70;;
4323;SDS011;2175;51.018;6.994;2023-12-20T05:51:39;29.00;;;8.43;;
4323;SDS011;2175;51.018;6.994;2023-12-20T05:54:05;25.40;;;6.17;;
4323;SDS011;2175;51.018;6.994;2023-12-20T05:56:31;26.20;;;7.80;;
4323;SDS011;2175;51.018;6.994;2023-12-20T05:58:57;19.57;;;6.50;;
4323;SDS011;2175;51.018;6.994;2023-12-20T06:01:24;26.67;;;7.73;;
4323;SDS011;2175;51.018;6.994;2023-12-20T06:03:50;17.40;;;5.90;;
4323;SDS011;2175;51.018;6.994;2023-12-20T06:06:15;26.73;;;6.50;;
4323;SDS011;2175;51.018;6.994;2023-12-20T06:08:42;23.07;;;6.30;;
4323;SDS011;2175;51.018;6.994;2023-12-20T06:11:08;24.10;;;6.20;;
4323;SDS011;2175;51.018;6.994;2023-12-20T06:13:34;25.53;;;7.37;;
4323;SDS011;2175;51.018;6.994;2023-12-20T06:16:00;26.67;;;6.60;;
4323;SDS011;2175;51.018;6.994;2023-12-20T06:18:26;19.43;;;5.40;;
4323;SDS011;2175;51.018;6.994;2023-12-20T06:20:52;24.60;;;5.90;;
4323;SDS011;2175;51.018;6.994;2023-12-20T06:23:18;23.63;;;6.37;;
4323;SDS011;2175;51.018;6.994;2023-12-20T06:25:44;22.70;;;6.10;;
4323;SDS011;2175;51.018;6.994;2023-12-20T06:28:10;28.60;;;6.50;;
4323;SDS011;2175;51.018;6.994;2023-12-20T06:30:39;28.07;;;6.40;;
4323;SDS011;2175;51.018;6.994;2023-12-20T06:33:05;22.03;;;6.60;;
4323;SDS011;2175;51.018;6.994;2023-12-20T06:35:31;29.57;;;7.10;;
4323;SDS011;2175;51.018;6.994;2023-12-20T06:37:58;26.03;;;7.03;;
4323;SDS011;2175;51.018;6.994;2023-12-20T06:40:23;33.00;;;7.50;;
4323;SDS011;2175;51.018;6.994;2023-12-20T06:42:50;22.83;;;5.63;;
4323;SDS011;2175;51.018;6.994;2023-12-20T06:45:15;18.37;;;6.00;;
4323;SDS011;2175;51.018;6.994;2023-12-20T06:47:41;20.93;;;5.47;;
4323;SDS011;2175;51.018;6.994;2023-12-20T06:50:07;22.87;;;6.07;;
4323;SDS011;2175;51.018;6.994;2023-12-20T06:52:34;36.27;;;8.67;;
4323;SDS011;2175;51.018;6.994;2023-12-20T06:55:00;24.30;;;5.70;;
4323;SDS011;2175;51.018;6.994;2023-12-20T06:57:26;27.97;;;6.00;;
4323;SDS011;2175;51.018;6.994;2023-12-20T06:59:52;38.87;;;7.20;;
4323;SDS011;2175;51.018;6.994;2023-12-20T07:02:20;24.93;;;6.23;;
4323;SDS011;2175;51.018;6.994;2023-12-20T07:04:47;31.27;;;7.30;;
4323;SDS011;2175;51.018;6.994;2023-12-20T07:07:13;32.27;;;5.63;;
4323;SDS011;2175;51.018;6.994;2023-12-20T07:09:39;20.57;;;5.13;;
4323;SDS011;2175;51.018;6.994;2023-12-20T07:12:07;31.93;;;7.30;;
4323;SDS011;2175;51.018;6.994;2023-12-20T07:14:33;21.60;;;5.23;;
4323;SDS011;2175;51.018;6.994;2023-12-20T07:16:59;22.50;;;6.20;;
4323;SDS011;2175;51.018;6.994;2023-12-20T07:19:25;19.83;;;5.77;;
4323;SDS011;2175;51.018;6.994;2023-12-20T07:21:51;23.77;;;4.93;;
4323;SDS011;2175;51.018;6.994;2023-12-20T07:24:18;13.77;;;4.73;;
4323;SDS011;2175;51.018;6.994;2023-12-20T07:26:44;20.67;;;5.80;;
4323;SDS011;2175;51.018;6.994;2023-12-20T07:29:10;22.07;;;6.40;;
4323;SDS011;2175;51.018;6.994;2023-12-20T07:31:36;14.57;;;5.07;;
4323;SDS011;2175;51.018;6.994;2023-12-20T07:34:03;20.67;;;4.90;;
4323;SDS011;2175;51.018;6.994;2023-12-20T07:36:30;19.97;;;4.80;;
4323;SDS011;2175;51.018;6.994;2023-12-20T07:38:56;19.17;;;5.20;;
4323;SDS011;2175;51.018;6.994;2023-12-20T07:41:22;27.03;;;5.43;;
4323;SDS011;2175;51.018;6.994;2023-12-20T07:43:48;21.57;;;6.50;;
4323;SDS011;2175;51.018;6.994;2023-12-20T07:46:14;25.63;;;5.33;;
4323;SDS011;2175;51.018;6.994;2023-12-20T07:48:40;28.90;;;7.53;;
4323;SDS011;2175;51.018;6.994;2023-12-20T07:51:07;13.80;;;5.30;;
4323;SDS011;2175;51.018;6.994;2023-12-20T07:53:34;25.40;;;6.13;;
4323;SDS011;2175;51.018;6.994;2023-12-20T07:56:00;19.83;;;5.63;;
4323;SDS011;2175;51.018;6.994;2023-12-20T07:58:26;17.97;;;6.00;;
4323;SDS011;2175;51.018;6.994;2023-12-20T08:00:55;19.40;;;5.70;;
4323;SDS011;2175;51.018;6.994;2023-12-20T08:03:20;15.90;;;5.67;;
4323;SDS011;2175;51.018;6.994;2023-12-20T08:05:46;26.13;;;6.03;;
4323;SDS011;2175;51.018;6.994;2023-12-20T08:08:12;33.97;;;7.37;;
4323;SDS011;2175;51.018;6.994;2023-12-20T08:10:38;19.63;;;5.80;;
4323;SDS011;2175;51.018;6.994;2023-12-20T08:13:04;26.53;;;6.40;;
4323;SDS011;2175;51.018;6.994;2023-12-20T08:15:31;28.40;;;5.30;;
4323;SDS011;2175;51.018;6.994;2023-12-20T08:17:57;32.73;;;7.70;;
4323;SDS011;2175;51.018;6.994;2023-12-20T08:20:23;23.67;;;6.60;;
4323;SDS011;2175;51.018;6.994;2023-12-20T08:22:49;22.10;;;6.00;;
4323;SDS011;2175;51.018;6.994;2023-12-20T08:25:15;24.90;;;6.30;;
4323;SDS011;2175;51.018;6.994;2023-12-20T08:27:41;24.20;;;6.07;;
4323;SDS011;2175;51.018;6.994;2023-12-20T08:30:10;20.83;;;6.10;;
4323;SDS011;2175;51.018;6.994;2023-12-20T08:32:37;25.63;;;5.97;;
4323;SDS011;2175;51.018;6.994;2023-12-20T08:35:03;27.77;;;6.47;;
4323;SDS011;2175;51.018;6.994;2023-12-20T08:37:29;24.20;;;6.57;;
4323;SDS011;2175;51.018;6.994;2023-12-20T08:39:55;15.93;;;5.50;;
4323;SDS011;2175;51.018;6.994;2023-12-20T08:42:21;24.20;;;6.53;;
4323;SDS011;2175;51.018;6.994;2023-12-20T08:44:49;24.60;;;6.20;;
4323;SDS011;2175;51.018;6.994;2023-12-20T08:47:15;28.30;;;5.80;;
4323;SDS011;2175;51.018;6.994;2023-12-20T08:49:42;22.87;;;6.23;;
4323;SDS011;2175;51.018;6.994;2023-12-20T08:52:09;23.20;;;5.77;;
4323;SDS011;2175;51.018;6.994;2023-12-20T08:54:34;23.63;;;5.60;;
4323;SDS011;2175;51.018;6.994;2023-12-20T08:57:00;22.23;;;5.30;;
4323;SDS011;2175;51.018;6.994;2023-12-20T08:59:26;23.33;;;6.47;;
4323;SDS011;2175;51.018;6.994;2023-12-20T09:01:52;26.20;;;5.83;;
4323;SDS011;2175;51.018;6.994;2023-12-20T09:04:19;24.40;;;6.13;;
4323;SDS011;2175;51.018;6.994;2023-12-20T09:06:46;24.10;;;5.83;;
4323;SDS011;2175;51.018;6.994;2023-12-20T09:09:11;21.37;;;4.73;;
4323;SDS011;2175;51.018;6.994;2023-12-20T09:11:39;20.57;;;5.00;;
4323;SDS011;2175;51.018;6.994;2023-12-20T09:14:05;28.83;;;6.00;;
4323;SDS011;2175;51.018;6.994;2023-12-20T09:16:31;18.53;;;5.20;;
4323;SDS011;2175;51.018;6.994;2023-12-20T09:18:57;26.33;;;6.03;;
4323;SDS011;2175;51.018;6.994;2023-12-20T09:21:23;16.83;;;4.60;;
4323;SDS011;2175;51.018;6.994;2023-12-20T09:23:49;20.80;;;5.57;;
4323;SDS011;2175;51.018;6.994;2023-12-20T09:26:15;18.37;;;4.53;;
4323;SDS011;2175;51.018;6.994;2023-12-20T09:28:41;20.93;;;5.33;;
4323;SDS011;2175;51.018;6.994;2023-12-20T09:31:07;28.50;;;4.90;;
4323;SDS011;2175;51.018;6.994;2023-12-20T09:33:33;21.43;;;5.03;;
4323;SDS011;2175;51.018;6.994;2023-12-20T09:35:59;24.10;;;5.77;;
4323;SDS011;2175;51.018;6.994;2023-12-20T09:38:25;23.20;;;4.80;;
4323;SDS011;2175;51.018;6.994;2023-12-20T09:40:51;16.37;;;4.80;;
4323;SDS011;2175;51.018;6.994;2023-12-20T09:43:19;25.60;;;5.37;;
4323;SDS011;2175;51.018;6.994;2023-12-20T09:45:46;22.63;;;5.07;;
4323;SDS011;2175;51.018;6.994;2023-12-20T09:48:12;18.20;;;4.47;;
4323;SDS011;2175;51.018;6.994;2023-12-20T09:50:41;24.00;;;5.00;;
4323;SDS011;2175;51.018;6.994;2023-12-20T09:53:08;21.23;;;4.93;;
4323;SDS011;2175;51.018;6.994;2023-12-20T09:55:34;21.43;;;5.30;;
4323;SDS011;2175;51.018;6.994;2023-12-20T09:58:01;22.70;;;5.40;;
4323;SDS011;2175;51.018;6.994;2023-12-20T10:00:27;27.03;;;5.07;;
4323;SDS011;2175;51.018;6.994;2023-12-20T10:02:57;26.70;;;5.47;;
4323;SDS011;2175;51.018;6.994;2023-12-20T10:05:27;24.90;;;5.33;;
4323;SDS011;2175;51.018;6.994;2023-12-20T10:07:53;19.93;;;4.50;;
4323;SDS011;2175;51.018;6.994;2023-12-20T10:10:19;24.87;;;4.90;;
4323;SDS011;2175;51.018;6.994;2023-12-20T10:13:02;20.37;;;5.17;;
4323;SDS011;2175;51.018;6.994;2023-12-20T10:15:28;26.13;;;5.53;;
4323;SDS011;2175;51.018;6.994;2023-12-20T10:17:54;17.43;;;4.53;;
4323;SDS011;2175;51.018;6.994;2023-12-20T10:20:20;21.07;;;5.07;;
4323;SDS011;2175;51.018;6.994;2023-12-20T10:22:46;22.40;;;4.33;;
4323;SDS011;2175;51.018;6.994;2023-12-20T10:25:13;19.40;;;4.13;;
4323;SDS011;2175;51.018;6.994;2023-12-20T10:27:39;16.97;;;4.33;;
4323;SDS011;2175;51.018;6.994;2023-12-20T10:30:05;31.50;;;4.77;;
4323;SDS011;2175;51.018;6.994;2023-12-20T10:32:31;17.67;;;4.60;;
4323;SDS011;2175;51.018;6.994;2023-12-20T10:34:59;19.03;;;4.70;;
4323;SDS011;2175;51.018;6.994;2023-12-20T10:37:25;21.40;;;4.23;;
4323;SDS011;2175;51.018;6.994;2023-12-20T10:39:52;27.10;;;5.40;;
4323;SDS011;2175;51.018;6.994;2023-12-20T10:42:21;25.10;;;5.20;;
4323;SDS011;2175;51.018;6.994;2023-12-20T10:44:48;15.77;;;4.50;;
4323;SDS011;2175;51.018;6.994;2023-12-20T10:47:16;17.57;;;4.10;;
4323;SDS011;2175;51.018;6.994;2023-12-20T10:49:42;19.13;;;4.37;;
4323;SDS011;2175;51.018;6.994;2023-12-20T10:52:09;18.37;;;4.70;;
4323;SDS011;2175;51.018;6.994;2023-12-20T10:54:37;15.30;;;4.57;;
4323;SDS011;2175;51.018;6.994;2023-12-20T10:57:05;21.30;;;5.67;;
4323;SDS011;2175;51.018;6.994;2023-12-20T10:59:33;18.20;;;5.03;;
4323;SDS011;2175;51.018;6.994;2023-12-20T11:01:59;22.57;;;5.13;;
4323;SDS011;2175;51.018;6.994;2023-12-20T11:09:43;23.43;;;4.50;;
4323;SDS011;2175;51.018;6.994;2023-12-20T11:12:15;16.60;;;5.07;;
4323;SDS011;2175;51.018;6.994;2023-12-20T11:14:45;23.67;;;4.80;;
4323;SDS011;2175;51.018;6.994;2023-12-20T11:17:12;19.03;;;4.40;;
4323;SDS011;2175;51.018;6.994;2023-12-20T11:22:27;22.50;;;4.30;;
4323;SDS011;2175;51.018;6.994;2023-12-20T11:24:58;16.30;;;4.50;;
4323;SDS011;2175;51.018;6.994;2023-12-20T11:27:24;22.47;;;4.00;;
4323;SDS011;2175;51.018;6.994;2023-12-20T11:29:51;17.03;;;4.40;;
4323;SDS011;2175;51.018;6.994;2023-12-20T11:34:53;19.43;;;4.20;;
4323;SDS011;2175;51.018;6.994;2023-12-20T11:37:19;18.67;;;4.60;;
4323;SDS011;2175;51.018;6.994;2023-12-20T11:39:53;27.57;;;4.27;;
4323;SDS011;2175;51.018;6.994;2023-12-20T11:42:19;25.43;;;4.80;;
4323;SDS011;2175;51.018;6.994;2023-12-20T11:44:45;14.07;;;4.70;;
4323;SDS011;2175;51.018;6.994;2023-12-20T11:47:12;16.17;;;4.73;;
4323;SDS011;2175;51.018;6.994;2023-12-20T11:49:40;17.63;;;4.13;;
4323;SDS011;2175;51.018;6.994;2023-12-20T11:52:06;18.50;;;4.27;;
4323;SDS011;2175;51.018;6.994;2023-12-20T11:54:32;20.73;;;4.23;;
4323;SDS011;2175;51.018;6.994;2023-12-20T11:56:58;24.73;;;4.73;;
4323;SDS011;2175;51.018;6.994;2023-12-20T11:59:24;15.27;;;4.10;;
4323;SDS011;2175;51.018;6.994;2023-12-20T12:01:50;11.67;;;3.70;;
4323;SDS011;2175;51.018;6.994;2023-12-20T12:04:17;17.80;;;4.37;;
4323;SDS011;2175;51.018;6.994;2023-12-20T12:06:43;18.50;;;5.30;;
4323;SDS011;2175;51.018;6.994;2023-12-20T12:09:10;19.13;;;4.10;;
4323;SDS011;2175;51.018;6.994;2023-12-20T12:11:36;12.57;;;3.87;;
4323;SDS011;2175;51.018;6.994;2023-12-20T12:14:03;22.80;;;4.60;;
4323;SDS011;2175;51.018;6.994;2023-12-20T12:16:29;18.50;;;3.97;;
4323;SDS011;2175;51.018;6.994;2023-12-20T12:18:55;26.67;;;5.10;;
4323;SDS011;2175;51.018;6.994;2023-12-20T12:21:22;22.23;;;5.07;;
4323;SDS011;2175;51.018;6.994;2023-12-20T12:23:48;14.80;;;4.10;;
4323;SDS011;2175;51.018;6.994;2023-12-20T12:26:14;18.27;;;4.50;;
4323;SDS011;2175;51.018;6.994;2023-12-20T12:28:40;21.10;;;4.70;;
4323;SDS011;2175;51.018;6.994;2023-12-20T12:31:07;18.50;;;4.57;;
4323;SDS011;2175;51.018;6.994;2023-12-20T12:33:33;22.47;;;5.03;;
4323;SDS011;2175;51.018;6.994;2023-12-20T12:36:00;20.27;;;4.93;;
4323;SDS011;2175;51.018;6.994;2023-12-20T12:38:26;14.40;;;4.50;;
4323;SDS011;2175;51.018;6.994;2023-12-20T12:40:52;28.20;;;6.50;;
4323;SDS011;2175;51.018;6.994;2023-12-20T12:43:19;14.40;;;4.60;;
4323;SDS011;2175;51.018;6.994;2023-12-20T12:45:45;19.33;;;5.37;;
4323;SDS011;2175;51.018;6.994;2023-12-20T12:48:11;19.80;;;5.57;;
4323;SDS011;2175;51.018;6.994;2023-12-20T12:50:37;26.00;;;4.40;;
4323;SDS011;2175;51.018;6.994;2023-12-20T12:53:03;14.97;;;5.23;;
4323;SDS011;2175;51.018;6.994;2023-12-20T12:55:29;18.40;;;5.40;;
4323;SDS011;2175;51.018;6.994;2023-12-20T12:57:55;17.80;;;4.63;;
4323;SDS011;2175;51.018;6.994;2023-12-20T13:00:21;27.97;;;5.80;;
4323;SDS011;2175;51.018;6.994;2023-12-20T13:02:47;17.43;;;4.83;;
4323;SDS011;2175;51.018;6.994;2023-12-20T13:05:13;20.37;;;5.03;;
4323;SDS011;2175;51.018;6.994;2023-12-20T13:07:39;20.93;;;5.40;;
4323;SDS011;2175;51.018;6.994;2023-12-20T13:10:05;20.70;;;5.70;;
4323;SDS011;2175;51.018;6.994;2023-12-20T13:12:31;17.30;;;4.80;;
4323;SDS011;2175;51.018;6.994;2023-12-20T13:14:57;22.50;;;5.60;;
4323;SDS011;2175;51.018;6.994;2023-12-20T13:17:23;25.80;;;5.60;;
4323;SDS011;2175;51.018;6.994;2023-12-20T13:19:49;22.13;;;5.20;;
4323;SDS011;2175;51.018;6.994;2023-12-20T13:22:15;23.00;;;6.00;;
4323;SDS011;2175;51.018;6.994;2023-12-20T13:24:41;25.90;;;6.07;;
4323;SDS011;2175;51.018;6.994;2023-12-20T13:27:09;21.70;;;5.40;;
4323;SDS011;2175;51.018;6.994;2023-12-20T13:29:35;19.67;;;4.80;;
4323;SDS011;2175;51.018;6.994;2023-12-20T13:32:01;18.67;;;5.27;;
4323;SDS011;2175;51.018;6.994;2023-12-20T13:34:28;20.50;;;5.73;;
4323;SDS011;2175;51.018;6.994;2023-12-20T13:36:54;20.77;;;5.17;;
4323;SDS011;2175;51.018;6.994;2023-12-20T13:39:21;17.73;;;5.33;;
4323;SDS011;2175;51.018;6.994;2023-12-20T13:41:47;18.73;;;5.33;;
4323;SDS011;2175;51.018;6.994;2023-12-20T13:44:13;25.07;;;5.47;;
4323;SDS011;2175;51.018;6.994;2023-12-20T13:46:40;23.13;;;5.00;;
4323;SDS011;2175;51.018;6.994;2023-12-20T13:49:06;16.13;;;5.03;;
4323;SDS011;2175;51.018;6.994;2023-12-20T13:51:32;16.43;;;5.10;;
4323;SDS011;2175;51.018;6.994;2023-12-20T13:53:58;18.23;;;5.00;;
4323;SDS011;2175;51.018;6.994;2023-12-20T13:56:25;16.63;;;4.90;;
4323;SDS011;2175;51.018;6.994;2023-12-20T13:58:51;13.67;;;4.87;;
4323;SDS011;2175;51.018;6.994;2023-12-20T14:01:17;14.23;;;4.20;;
4323;SDS011;2175;51.018;6.994;2023-12-20T14:03:43;14.50;;;4.50;;
4323;SDS011;2175;51.018;6.994;2023-12-20T14:06:09;14.07;;;4.93;;
4323;SDS011;2175;51.018;6.994;2023-12-20T14:08:35;21.70;;;5.10;;
4323;SDS011;2175;51.018;6.994;2023-12-20T14:11:01;17.63;;;5.00;;
4323;SDS011;2175;51.018;6.994;2023-12-20T14:13:27;14.63;;;5.00;;
4323;SDS011;2175;51.018;6.994;2023-12-20T14:15:53;14.27;;;4.27;;
4323;SDS011;2175;51.018;6.994;2023-12-20T14:18:20;17.70;;;4.60;;
4323;SDS011;2175;51.018;6.994;2023-12-20T14:20:46;13.73;;;3.83;;
4323;SDS011;2175;51.018;6.994;2023-12-20T14:23:14;19.97;;;4.63;;
4323;SDS011;2175;51.018;6.994;2023-12-20T14:25:41;17.43;;;4.80;;
4323;SDS011;2175;51.018;6.994;2023-12-20T14:28:07;18.27;;;4.63;;
4323;SDS011;2175;51.018;6.994;2023-12-20T14:30:33;19.23;;;5.20;;
4323;SDS011;2175;51.018;6.994;2023-12-20T14:33:00;15.00;;;4.40;;
4323;SDS011;2175;51.018;6.994;2023-12-20T14:35:26;16.80;;;4.53;;
4323;SDS011;2175;51.018;6.994;2023-12-20T14:37:52;20.10;;;4.80;;
4323;SDS011;2175;51.018;6.994;2023-12-20T14:40:18;16.83;;;4.90;;
4323;SDS011;2175;51.018;6.994;2023-12-20T14:42:45;11.87;;;4.33;;
4323;SDS011;2175;51.018;6.994;2023-12-20T14:45:11;14.27;;;4.60;;
4323;SDS011;2175;51.018;6.994;2023-12-20T14:47:39;17.37;;;4.40;;
4323;SDS011;2175;51.018;6.994;2023-12-20T14:50:05;15.47;;;5.20;;
4323;SDS011;2175;51.018;6.994;2023-12-20T14:52:32;22.90;;;5.80;;
4323;SDS011;2175;51.018;6.994;2023-12-20T14:55:02;16.57;;;5.03;;
4323;SDS011;2175;51.018;6.994;2023-12-20T14:57:28;19.43;;;4.93;;
4323;SDS011;2175;51.018;6.994;2023-12-20T14:59:55;15.00;;;4.20;;
4323;SDS011;2175;51.018;6.994;2023-12-20T15:02:21;16.90;;;4.50;;